Zarling — WDD7883 — position and weather

sailwx.info

Track history (hours):
 
Tides and Currents Weather Stations Pressure Air Temp Water Temp Dewpoint Dewpoint Depression Visibility Wind Speed Wind Dir Waves Ship Positions

Zarling

Owner: Clean Rivers Co-op, Portland, OR. More information available from US FCC via Universal Licensing System.

Last reported at 2016-May-25 16:33 UTC. Time now 2016-May-25 16:55 UTC.
Position N 46°11' W 123°51'.

Length 12 m.

Type: Pollution control. MMSI: 3699126.

Date/timePositionNaut miles runAvg speedWind from/ knotsBaromVisibWave heightAir tempDewpointWater temp
2016-May-25 16:33N 46°11' W 123°51'331935.7
2016-May-25 16:32N 46°10' W 123°03'14750.0
2016-May-25 16:31N 46°12' W 123°23'2020.3
2016-May-25 15:33N 46°11' W 123°51'20541.3
2016-May-25 15:31N 46°12' W 123°23'1477.1
2016-May-25 15:20N 46°10' W 123°03'3342.6
2016-May-25 14:33N 46°11' W 123°51'20537.1
2016-May-25 14:31N 46°12' W 123°23'1477.1
2016-May-25 14:20N 46°10' W 123°03'3342.6
2016-May-25 13:33N 46°11' W 123°51'331905.0
2016-May-25 13:32N 46°10' W 123°03'1463.6
2016-May-25 13:19N 46°12' W 123°23'2025.6
2016-May-25 12:33N 46°11' W 123°51'332000.2
2016-May-25 12:32N 46°10' W 123°03'3333.9
2016-May-25 11:33N 46°11' W 123°51'331935.7
2016-May-25 11:32N 46°10' W 123°03'1451.9
2016-May-25 11:16N 46°12' W 123°23'2027.4
2016-May-25 10:33N 46°11' W 123°51'33489.8
2016-May-25 10:29N 46°10' W 123°03'1482.5
2016-May-25 10:19N 46°12' W 123°23'2025.6
2016-May-25 09:33N 46°11' W 123°51'331905.0
2016-May-25 09:32N 46°10' W 123°03'1463.5
2016-May-25 09:19N 46°12' W 123°23'2025.6
2016-May-25 08:33N 46°11' W 123°51'331818.4
2016-May-25 08:32N 46°10' W 123°03'14201.8
2016-May-25 08:28N 46°12' W 123°23'2021.4
2016-May-25 07:33N 46°11' W 123°51'331764.9
2016-May-25 07:32N 46°10' W 123°03'14116.9
2016-May-25 07:25N 46°12' W 123°23'2022.7
2016-May-25 06:33N 46°11' W 123°51'331791.2
2016-May-25 06:32N 46°10' W 123°03'14117.9
2016-May-25 06:25N 46°12' W 123°23'2022.6
2016-May-25 05:33N 46°11' W 123°51'331875.2
2016-May-25 05:32N 46°10' W 123°03'14749.9
2016-May-25 05:31N 46°12' W 123°23'2020.3
2016-May-25 04:33N 46°11' W 123°51'331846.4
2016-May-25 04:32N 46°10' W 123°03'14717.9
2016-May-25 04:31N 46°12' W 123°23'2020.3
2016-May-25 03:33N 46°11' W 123°51'331791.2
2016-May-25 03:32N 46°10' W 123°03'14697.9
2016-May-25 03:31N 46°12' W 123°23'1414.2
2016-May-25 02:32N 46°10' W 123°03'331132.2
2016-May-25 02:30N 46°11' W 123°51'0 0.0
2016-May-25 01:33N 46°11' W 123°51'331818.4
2016-May-25 01:32N 46°10' W 123°03'3334.0
2016-May-25 00:33N 46°11' W 123°51'331621.8
2016-May-25 00:32N 46°10' W 123°03'3334.0
2016-May-24 23:33N 46°11' W 123°51'33472.5
2016-May-24 23:29N 46°10' W 123°03'1463.9
2016-May-24 23:16N 46°12' W 123°23'2027.5
2016-May-24 22:33N 46°11' W 123°51'331714.5
2016-May-24 22:32N 46°10' W 123°03'1463.4
2016-May-24 22:19N 46°12' W 123°23'2025.7
2016-May-24 21:33N 46°11' W 123°51'20513.6
2016-May-24 21:31N 46°12' W 123°23'14171.5
2016-May-24 21:26N 46°10' W 123°03'3337.9
2016-May-24 20:33N 46°11' W 123°51'33482.0
2016-May-24 20:29N 46°10' W 123°03'14202.6
2016-May-24 20:25N 46°12' W 123°23'2022.7
2016-May-24 19:33N 46°11' W 123°51'331690.3
2016-May-24 19:32N 46°10' W 123°03'1433.3
2016-May-24 19:07N 46°12' W 123°23'2034.8
2016-May-24 18:33N 46°11' W 123°51'331690.3
2016-May-24 18:32N 46°10' W 123°03'14773.1
2016-May-24 18:31N 46°12' W 123°23'0 0.0
2016-May-24 17:31N 46°12' W 123°23'201759.1
2016-May-24 17:30N 46°11' W 123°51'33196.1
2016-May-24 17:20N 46°10' W 123°03'3342.7
2016-May-24 16:33N 46°11' W 123°51'331666.8
2016-May-24 16:32N 46°10' W 123°03'14749.9
2016-May-24 16:31N 46°12' W 123°23'2020.3
2016-May-24 15:33N 46°11' W 123°51'331644.0
2016-May-24 15:32N 46°10' W 123°03'14707.7
2016-May-24 15:31N 46°12' W 123°23'2020.4
2016-May-24 14:33N 46°11' W 123°51'331621.8
2016-May-24 14:32N 46°10' W 123°03'14728.2
2016-May-24 14:31N 46°12' W 123°23'47215.3
2016-May-24 14:18N 45°34' W 122°43'3951.1
2016-May-24 13:32N 46°10' W 123°03'331165.2
2016-May-24 13:30N 46°11' W 123°51'61544.6
2016-May-24 13:24N 45°34' W 122°43'6172.1
2016-May-24 12:33N 46°11' W 123°51'33274.6
2016-May-24 12:26N 46°10' W 123°03'3335.9
2016-May-24 11:30N 46°11' W 123°51'33467.0
2016-May-24 11:26N 46°10' W 123°03'3338.0
2016-May-24 10:33N 46°11' W 123°51'331500.1
2016-May-24 10:32N 46°10' W 123°03'39278.7
2016-May-24 10:24N 45°34' W 122°43'3945.2
2016-May-24 09:32N 46°10' W 123°03'331165.2
2016-May-24 09:30N 46°11' W 123°51'615446.0
2016-May-24 09:30N 45°34' W 122°43'47265.8
2016-May-24 09:19N 46°12' W 123°23'1417.8
2016-May-24 08:32N 46°10' W 123°03'331212.2
2016-May-24 08:30N 46°11' W 123°51'2067.4
2016-May-24 08:13N 46°12' W 123°23'2029.6
2016-May-24 07:33N 46°11' W 123°51'331481.6
2016-May-24 07:32N 46°10' W 123°03'14707.7
2016-May-24 07:31N 46°12' W 123°23'47148.9
2016-May-24 07:12N 45°34' W 122°43'3958.9
2016-May-24 06:32N 46°10' W 123°03'14688.3
2016-May-24 06:31N 46°12' W 123°23'202198.9
2016-May-24 06:30N 46°11' W 123°51'615585.7
2016-May-24 06:30N 45°34' W 122°43'6164.5
2016-May-24 05:33N 46°11' W 123°51'331481.6
2016-May-24 05:32N 46°10' W 123°03'14738.9
2016-May-24 05:31N 46°12' W 123°23'2020.4
2016-May-24 04:33N 46°11' W 123°51'20472.2
2016-May-24 04:31N 46°12' W 123°23'47399.4
2016-May-24 04:24N 45°34' W 122°43'393586.6
2016-May-24 04:23N 46°10' W 123°03'3338.0
2016-May-24 03:30N 46°11' W 123°51'331395.5
2016-May-24 03:29N 46°10' W 123°03'1451.9
2016-May-24 03:13N 46°12' W 123°23'2029.7
2016-May-24 02:33N 46°11' W 123°51'331481.6
2016-May-24 02:32N 46°10' W 123°03'1463.6
2016-May-24 02:19N 46°12' W 123°23'472513.6
2016-May-24 02:18N 45°34' W 122°43'6181.9
2016-May-24 01:33N 46°11' W 123°51'331428.7
2016-May-24 01:32N 46°10' W 123°03'14761.3
2016-May-24 01:31N 46°12' W 123°23'2020.4
2016-May-24 00:33N 46°11' W 123°51'20938.2
2016-May-24 00:32N 46°12' W 123°23'145583.3
2016-May-24 00:32N 46°10' W 123°03'3334.2
2016-May-23 23:33N 46°11' W 123°51'331379.5
2016-May-23 23:32N 46°10' W 123°03'1464.2
2016-May-23 23:19N 46°12' W 123°23'471709.3
2016-May-23 23:17N 45°34' W 122°43'6182.8
2016-May-23 22:33N 46°11' W 123°51'331428.7
2016-May-23 22:32N 46°10' W 123°03'14707.7
2016-May-23 22:31N 46°12' W 123°23'2020.4
2016-May-23 21:33N 46°11' W 123°51'33454.6
2016-May-23 21:29N 46°10' W 123°03'3334.2
2016-May-23 20:30N 46°11' W 123°51'331411.9
2016-May-23 20:29N 46°10' W 123°03'3336.0
2016-May-23 19:33N 46°11' W 123°51'331379.5
2016-May-23 19:32N 46°10' W 123°03'1443.8
2016-May-23 19:13N 46°12' W 123°23'2029.8
2016-May-23 18:33N 46°11' W 123°51'331428.7
2016-May-23 18:32N 46°10' W 123°03'14697.9
2016-May-23 18:31N 46°12' W 123°23'2020.4
2016-May-23 17:33N 46°11' W 123°51'20451.0
2016-May-23 17:31N 46°12' W 123°23'14106.2
2016-May-23 17:23N 46°10' W 123°03'3340.4
2016-May-23 16:33N 46°11' W 123°51'331445.9
2016-May-23 16:32N 46°10' W 123°03'3334.1
2016-May-23 15:33N 46°11' W 123°51'331363.8
2016-May-23 15:32N 46°10' W 123°03'1463.8
2016-May-23 15:19N 46°12' W 123°23'2025.8
2016-May-23 14:33N 46°11' W 123°51'33269.7
2016-May-23 14:26N 46°10' W 123°03'14773.0
2016-May-23 14:25N 46°12' W 123°23'2022.8
2016-May-23 13:33N 46°11' W 123°51'331379.5
2016-May-23 13:32N 46°10' W 123°03'3334.2
2016-May-23 12:33N 46°11' W 123°51'33446.1
2016-May-23 12:29N 46°10' W 123°03'3336.0
2016-May-23 11:33N 46°11' W 123°51'331348.5
2016-May-23 11:32N 46°10' W 123°03'39209.1
2016-May-23 11:21N 45°34' W 122°43'47357.6
2016-May-23 11:13N 46°12' W 123°23'2029.8
2016-May-23 10:34N 46°11' W 123°51'615585.7
2016-May-23 10:33N 45°34' W 122°43'39603.0
2016-May-23 10:29N 46°10' W 123°03'1437.9
2016-May-23 10:07N 46°12' W 123°23'2035.1
2016-May-23 09:34N 46°11' W 123°51'331333.5
2016-May-23 09:32N 46°10' W 123°03'39412.7
2016-May-23 09:26N 45°34' W 122°43'6168.7
2016-May-23 08:33N 46°11' W 123°51'33267.9
2016-May-23 08:26N 46°10' W 123°03'14117.4
2016-May-23 08:19N 46°12' W 123°23'2025.8
2016-May-23 07:34N 46°11' W 123°51'33191.4
2016-May-23 07:23N 46°10' W 123°03'1482.1
2016-May-23 07:13N 46°12' W 123°23'1420.5
2016-May-23 06:32N 46°10' W 123°03'331333.5
2016-May-23 06:31N 46°11' W 123°51'20208.2
2016-May-23 06:25N 46°12' W 123°23'2022.8
2016-May-23 05:34N 46°11' W 123°51'331318.8
2016-May-23 05:32N 46°10' W 123°03'39417.5
2016-May-23 05:26N 45°34' W 122°43'471857.9
2016-May-23 05:25N 46°12' W 123°23'1415.8
2016-May-23 04:32N 46°10' W 123°03'331333.5
2016-May-23 04:31N 46°11' W 123°51'20100.5
2016-May-23 04:19N 46°12' W 123°23'1417.9
2016-May-23 03:32N 46°10' W 123°03'14738.9
2016-May-23 03:31N 46°12' W 123°23'203703.4
2016-May-23 03:31N 46°11' W 123°51'0 0.0
2016-May-23 02:34N 46°11' W 123°51'20205.1
2016-May-23 02:28N 46°12' W 123°23'14461.0
2016-May-23 02:26N 46°10' W 123°03'0 0.0
2016-May-23 01:32N 46°10' W 123°03'331445.9
2016-May-23 01:31N 46°11' W 123°51'0 0.0
2016-May-23 00:31N 46°11' W 123°51'33436.4
2016-May-23 00:26N 46°10' W 123°03'1463.6
2016-May-23 00:13N 46°12' W 123°23'1420.5
2016-May-22 23:32N 46°10' W 123°03'14738.9
2016-May-22 23:31N 46°12' W 123°23'204397.7
2016-May-22 23:31N 46°11' W 123°51'0 0.0
2016-May-22 22:31N 46°11' W 123°51'331212.2
2016-May-22 22:29N 46°10' W 123°03'14728.2
2016-May-22 22:28N 46°12' W 123°23'4751.5
2016-May-22 21:32N 45°34' W 122°43'471780.5
2016-May-22 21:31N 46°12' W 123°23'205026.0
2016-May-22 21:31N 46°11' W 123°51'331250.1
2016-May-22 21:29N 46°10' W 123°03'0 0.0
2016-May-22 20:32N 46°10' W 123°03'14717.8
2016-May-22 20:31N 46°12' W 123°23'205863.6
2016-May-22 20:31N 46°11' W 123°51'2019.6
2016-May-22 19:31N 46°12' W 123°23'205026.0
2016-May-22 19:31N 46°11' W 123°51'33430.2
2016-May-22 19:26N 46°10' W 123°03'0 0.0
2016-May-22 18:32N 46°10' W 123°03'14761.4
2016-May-22 18:31N 46°12' W 123°23'204691.0
2016-May-22 18:31N 46°11' W 123°51'3334.2
2016-May-22 17:32N 46°10' W 123°03'14115.8
2016-May-22 17:25N 46°12' W 123°23'205412.6
2016-May-22 17:25N 46°11' W 123°51'3338.0
2016-May-22 16:32N 46°10' W 123°03'14749.9
2016-May-22 16:31N 46°12' W 123°23'204690.9
2016-May-22 16:31N 46°11' W 123°51'61358.9
2016-May-22 16:21N 45°34' W 122°43'3948.2
2016-May-22 15:32N 46°10' W 123°03'14707.7
2016-May-22 15:31N 46°12' W 123°23'205026.0
2016-May-22 15:31N 46°11' W 123°51'0 0.0
2016-May-22 14:31N 46°11' W 123°51'33412.4
2016-May-22 14:26N 46°10' W 123°03'1463.7
2016-May-22 14:13N 46°12' W 123°23'2027.8
2016-May-22 13:31N 46°11' W 123°51'20858.1
2016-May-22 13:29N 46°12' W 123°23'142284.1
2016-May-22 13:29N 46°10' W 123°03'3334.3
2016-May-22 12:31N 46°11' W 123°51'331188.2
2016-May-22 12:29N 46°10' W 123°03'1447.5
2016-May-22 12:11N 46°12' W 123°23'2028.9
2016-May-22 11:31N 46°11' W 123°51'331143.0
2016-May-22 11:29N 46°10' W 123°03'1447.5
2016-May-22 11:11N 46°12' W 123°23'1421.4
2016-May-22 10:32N 46°10' W 123°03'331333.5
2016-May-22 10:31N 46°11' W 123°51'61225.0
2016-May-22 10:15N 45°34' W 122°43'3954.8
2016-May-22 09:32N 46°10' W 123°03'331579.1
2016-May-22 09:31N 46°11' W 123°51'3334.0
2016-May-22 08:32N 46°10' W 123°03'331621.8
2016-May-22 08:31N 46°11' W 123°51'3334.0
2016-May-22 07:32N 46°10' W 123°03'331579.1
2016-May-22 07:31N 46°11' W 123°51'20159.2
2016-May-22 07:23N 46°12' W 123°23'1416.3
2016-May-22 06:32N 46°10' W 123°03'14310.2
2016-May-22 06:29N 46°12' W 123°23'20733.0
2016-May-22 06:28N 46°11' W 123°51'3335.9
2016-May-22 05:32N 46°10' W 123°03'331579.1
2016-May-22 05:31N 46°11' W 123°51'20837.7
2016-May-22 05:29N 46°12' W 123°23'1414.6
2016-May-22 04:32N 46°10' W 123°03'331558.6
2016-May-22 04:31N 46°11' W 123°51'20158.5
2016-May-22 04:23N 46°12' W 123°23'1416.3
2016-May-22 03:32N 46°10' W 123°03'331558.6
2016-May-22 03:31N 46°11' W 123°51'2087.5
2016-May-22 03:17N 46°12' W 123°23'1418.5
2016-May-22 02:32N 46°10' W 123°03'331621.8
2016-May-22 02:31N 46°11' W 123°51'20157.8
2016-May-22 02:23N 46°12' W 123°23'2022.3
2016-May-22 01:31N 46°11' W 123°51'20818.2
2016-May-22 01:29N 46°12' W 123°23'142284.1
2016-May-22 01:29N 46°10' W 123°03'0 0.0
2016-May-22 00:32N 46°10' W 123°03'331714.5
2016-May-22 00:31N 46°11' W 123°51'20756.6
2016-May-22 00:29N 46°12' W 123°23'1414.6
2016-May-21 23:32N 46°10' W 123°03'331558.6
2016-May-21 23:31N 46°11' W 123°51'20818.2
2016-May-21 23:29N 46°12' W 123°23'1414.6
2016-May-21 22:32N 46°10' W 123°03'331714.5
2016-May-21 22:31N 46°11' W 123°51'20808.8
2016-May-21 22:29N 46°12' W 123°23'1414.6
2016-May-21 21:32N 46°10' W 123°03'331714.5
2016-May-21 21:31N 46°11' W 123°51'2060.2
2016-May-21 21:11N 46°12' W 123°23'2029.0
2016-May-21 20:31N 46°11' W 123°51'20756.6
2016-May-21 20:29N 46°12' W 123°23'14250.0
2016-May-21 20:26N 46°10' W 123°03'3336.2
2016-May-21 19:31N 46°11' W 123°51'331081.2
2016-May-21 19:29N 46°10' W 123°03'1447.5
2016-May-21 19:11N 46°12' W 123°23'2029.0
2016-May-21 18:31N 46°11' W 123°51'20773.2
2016-May-21 18:29N 46°12' W 123°23'14250.0
2016-May-21 18:26N 46°10' W 123°03'3336.3
2016-May-21 17:31N 46°11' W 123°51'20748.6
2016-May-21 17:29N 46°12' W 123°23'142644.6
2016-May-21 17:29N 46°10' W 123°03'0 0.0
2016-May-21 16:32N 46°10' W 123°03'331791.2
2016-May-21 16:31N 46°11' W 123°51'2086.4
2016-May-21 16:17N 46°12' W 123°23'4763.9
2016-May-21 15:33N 45°34' W 122°43'611962.5
2016-May-21 15:31N 46°11' W 123°51'20773.2
2016-May-21 15:29N 46°12' W 123°23'14252.5
2016-May-21 15:26N 46°10' W 123°03'0 0.0
2016-May-21 14:32N 46°10' W 123°03'331818.4
2016-May-21 14:31N 46°11' W 123°51'61871.4
2016-May-21 14:27N 45°34' W 122°43'47833.8
2016-May-21 14:23N 46°12' W 123°23'2022.4
2016-May-21 13:31N 46°11' W 123°51'20764.8
2016-May-21 13:29N 46°12' W 123°23'142512.3
2016-May-21 13:29N 46°10' W 123°03'3941.5
2016-May-21 12:33N 45°34' W 122°43'392797.9
2016-May-21 12:32N 46°10' W 123°03'33487.9
2016-May-21 12:28N 46°11' W 123°51'2052.0
2016-May-21 12:05N 46°12' W 123°23'4787.5
2016-May-21 11:33N 45°34' W 122°43'611962.5
2016-May-21 11:31N 46°11' W 123°51'331043.6
2016-May-21 11:29N 46°10' W 123°03'1435.4
2016-May-21 11:05N 46°12' W 123°23'1425.1
2016-May-21 10:32N 46°10' W 123°03'331875.2
2016-May-21 10:31N 46°11' W 123°51'20154.0
2016-May-21 10:23N 46°12' W 123°23'47196.0
2016-May-21 10:09N 45°34' W 122°43'3963.4
2016-May-21 09:32N 46°10' W 123°03'33493.9
2016-May-21 09:28N 46°11' W 123°51'20254.0
2016-May-21 09:23N 46°12' W 123°23'1416.3
2016-May-21 08:32N 46°10' W 123°03'331905.0
2016-May-21 08:31N 46°11' W 123°51'20764.8
2016-May-21 08:29N 46°12' W 123°23'1414.6
2016-May-21 07:32N 46°10' W 123°03'331846.3
2016-May-21 07:31N 46°11' W 123°51'20154.6
2016-May-21 07:23N 46°12' W 123°23'1416.3
2016-May-21 06:32N 46°10' W 123°03'331905.0
2016-May-21 06:31N 46°11' W 123°51'20748.6
2016-May-21 06:29N 46°12' W 123°23'471117.2
2016-May-21 06:27N 45°34' W 122°43'3942.5
2016-May-21 05:32N 46°10' W 123°03'331875.2
2016-May-21 05:31N 46°11' W 123°51'20154.6
2016-May-21 05:23N 46°12' W 123°23'1416.3
2016-May-21 04:32N 46°10' W 123°03'332000.2
2016-May-21 04:31N 46°11' W 123°51'61867.9
2016-May-21 04:27N 45°34' W 122°43'3942.5
2016-May-21 03:32N 46°10' W 123°03'331967.4
2016-May-21 03:31N 46°11' W 123°51'61864.4
2016-May-21 03:27N 45°34' W 122°43'47300.4
2016-May-21 03:17N 46°12' W 123°23'1418.5
2016-May-21 02:32N 46°10' W 123°03'332000.2
2016-May-21 02:31N 46°11' W 123°51'61358.9
2016-May-21 02:21N 45°34' W 122°43'47810.1
2016-May-21 02:17N 46°12' W 123°23'1418.5
2016-May-21 01:32N 46°10' W 123°03'332069.2
2016-May-21 01:31N 46°11' W 123°51'20152.0
2016-May-21 01:23N 46°12' W 123°23'1416.3
2016-May-21 00:32N 46°10' W 123°03'332264.4
2016-May-21 00:31N 46°11' W 123°51'2059.3
2016-May-21 00:11N 46°12' W 123°23'2029.1
2016-May-20 23:31N 46°11' W 123°51'61871.4
2016-May-20 23:27N 45°34' W 122°43'392543.2
2016-May-20 23:26N 46°10' W 123°03'1457.2
2016-May-20 23:11N 46°12' W 123°23'1421.3
2016-May-20 22:32N 46°10' W 123°03'332000.2
2016-May-20 22:31N 46°11' W 123°51'61592.0
2016-May-20 22:25N 45°34' W 122°43'471837.9
2016-May-20 22:23N 46°12' W 123°23'1416.3
2016-May-20 21:32N 46°10' W 123°03'332000.2
2016-May-20 21:31N 46°11' W 123°51'20152.6
2016-May-20 21:23N 46°12' W 123°23'1416.3
2016-May-20 20:32N 46°10' W 123°03'332069.2
2016-May-20 20:31N 46°11' W 123°51'20703.6
2016-May-20 20:29N 46°12' W 123°23'1414.6
2016-May-20 19:32N 46°10' W 123°03'332069.2
2016-May-20 19:31N 46°11' W 123°51'20154.0
2016-May-20 19:23N 46°12' W 123°23'1416.3
2016-May-20 18:32N 46°10' W 123°03'332034.1
2016-May-20 18:31N 46°11' W 123°51'2085.8
2016-May-20 18:17N 46°12' W 123°23'1418.4
2016-May-20 17:32N 46°10' W 123°03'332264.4
2016-May-20 17:31N 46°11' W 123°51'20676.6
2016-May-20 17:29N 46°12' W 123°23'2020.1
2016-May-20 16:31N 46°11' W 123°51'33960.1
2016-May-20 16:29N 46°10' W 123°03'14147.8
2016-May-20 16:23N 46°12' W 123°23'1416.3
2016-May-20 15:32N 46°10' W 123°03'332182.0
2016-May-20 15:31N 46°11' W 123°51'20663.8
2016-May-20 15:29N 46°12' W 123°23'1414.6
2016-May-20 14:32N 46°10' W 123°03'332182.0
2016-May-20 14:31N 46°11' W 123°51'20683.1
2016-May-20 14:29N 46°12' W 123°23'1414.6
2016-May-20 13:32N 46°10' W 123°03'332143.1
2016-May-20 13:31N 46°11' W 123°51'20676.6
2016-May-20 13:29N 46°12' W 123°23'2020.1
2016-May-20 12:31N 46°11' W 123°51'613251.4
2016-May-20 12:30N 45°34' W 122°43'474382.7
2016-May-20 12:29N 46°12' W 123°23'14246.3
2016-May-20 12:26N 46°10' W 123°03'0 0.0
2016-May-20 11:32N 46°10' W 123°03'332308.0
2016-May-20 11:31N 46°11' W 123°51'20657.6
2016-May-20 11:29N 46°12' W 123°23'47529.2
2016-May-20 11:24N 45°34' W 122°43'3944.9
2016-May-20 10:32N 46°10' W 123°03'332500.3
2016-May-20 10:31N 46°11' W 123°51'2059.0
2016-May-20 10:11N 46°12' W 123°23'1421.3
2016-May-20 09:32N 46°10' W 123°03'332308.0
2016-May-20 09:31N 46°11' W 123°51'20151.0
2016-May-20 09:23N 46°12' W 123°23'2022.5
2016-May-20 08:31N 46°11' W 123°51'33245.4
2016-May-20 08:23N 46°10' W 123°03'3338.6
2016-May-20 07:31N 46°11' W 123°51'33952.5
2016-May-20 07:29N 46°10' W 123°03'1471.6
2016-May-20 07:17N 46°12' W 123°23'1418.5
2016-May-20 06:32N 46°10' W 123°03'332449.2
2016-May-20 06:31N 46°11' W 123°51'2084.6
2016-May-20 06:17N 46°12' W 123°23'2025.4
2016-May-20 05:31N 46°11' W 123°51'20639.7
2016-May-20 05:29N 46°12' W 123°23'1414.6
2016-May-20 04:32N 46°10' W 123°03'332791.0
2016-May-20 04:31N 46°11' W 123°51'20148.4
2016-May-20 04:23N 46°12' W 123°23'2022.5
2016-May-20 03:31N 46°11' W 123°51'20622.7
2016-May-20 03:29N 46°12' W 123°23'142184.6
2016-May-20 03:29N 46°10' W 123°03'3332.9
2016-May-20 02:28N 46°11' W 123°51'33889.0
2016-May-20 02:26N 46°10' W 123°03'14318.0
2016-May-20 02:23N 46°12' W 123°23'1416.3
2016-May-20 01:32N 46°10' W 123°03'332609.0
2016-May-20 01:31N 46°11' W 123°51'20622.7
2016-May-20 01:29N 46°12' W 123°23'1414.6
2016-May-20 00:32N 46°10' W 123°03'332449.2
2016-May-20 00:31N 46°11' W 123°51'2084.6
2016-May-20 00:17N 46°12' W 123°23'2025.4
2016-May-19 23:31N 46°11' W 123°51'20628.2
2016-May-19 23:29N 46°12' W 123°23'14252.5
2016-May-19 23:26N 46°10' W 123°03'39529.8
2016-May-19 23:22N 45°34' W 122°43'3947.0
2016-May-19 22:32N 46°10' W 123°03'332553.5
2016-May-19 22:31N 46°11' W 123°51'20622.7
2016-May-19 22:29N 46°12' W 123°23'1414.6
2016-May-19 21:32N 46°10' W 123°03'332791.0
2016-May-19 21:31N 46°11' W 123°51'0 0.0
2016-May-19 20:31N 46°11' W 123°51'33381.0
2016-May-19 20:26N 46°10' W 123°03'1457.1
2016-May-19 20:11N 46°12' W 123°23'2029.3
2016-May-19 19:31N 46°11' W 123°51'33851.2
2016-May-19 19:29N 46°10' W 123°03'1464.0
2016-May-19 19:16N 46°12' W 123°23'1419.8
2016-May-19 18:34N 46°10' W 123°03'33882.4
2016-May-19 18:31N 46°11' W 123°51'20348.3
2016-May-19 18:28N 46°12' W 123°23'47773.4
2016-May-19 18:24N 45°34' W 122°43'6168.7
2016-May-19 17:31N 46°11' W 123°51'20339.9
2016-May-19 17:28N 46°12' W 123°23'14250.0
2016-May-19 17:25N 46°10' W 123°03'0 0.0
2016-May-19 16:33N 46°10' W 123°03'33937.6
2016-May-19 16:31N 46°11' W 123°51'20123.9
2016-May-19 16:22N 46°12' W 123°23'2023.2
2016-May-19 15:31N 46°11' W 123°51'332609.0
2016-May-19 15:31N 46°10' W 123°03'14310.2
2016-May-19 15:28N 46°12' W 123°23'1415.4
2016-May-19 14:34N 46°10' W 123°03'33902.4
2016-May-19 14:31N 46°11' W 123°51'2054.7
2016-May-19 14:10N 46°12' W 123°23'1422.9
2016-May-19 13:33N 46°10' W 123°03'331052.7
2016-May-19 13:31N 46°11' W 123°51'20338.3
2016-May-19 13:28N 46°12' W 123°23'2020.8
2016-May-19 12:31N 46°11' W 123°51'331739.3
2016-May-19 12:30N 46°10' W 123°03'14351.4
2016-May-19 12:28N 46°12' W 123°23'1415.3
2016-May-19 11:33N 46°10' W 123°03'331008.5
2016-May-19 11:31N 46°11' W 123°51'2043.1
2016-May-19 11:04N 46°12' W 123°23'2035.8
2016-May-19 10:31N 46°11' W 123°51'33495.9
2016-May-19 10:27N 46°10' W 123°03'39258.6
2016-May-19 10:18N 45°34' W 122°43'471187.0
2016-May-19 10:16N 46°12' W 123°23'2026.4
2016-May-19 09:31N 46°11' W 123°51'331818.4
2016-May-19 09:30N 46°10' W 123°03'14341.8
2016-May-19 09:28N 46°12' W 123°23'1415.3
2016-May-19 08:33N 46°10' W 123°03'331043.6
2016-May-19 08:31N 46°11' W 123°51'20341.6
2016-May-19 08:28N 46°12' W 123°23'47182.0
2016-May-19 08:12N 45°34' W 122°43'3959.8
2016-May-19 07:33N 46°10' W 123°03'331071.5
2016-May-19 07:31N 46°11' W 123°51'2042.5
2016-May-19 07:04N 46°12' W 123°23'2036.1
2016-May-19 06:31N 46°11' W 123°51'20336.7
2016-May-19 06:28N 46°12' W 123°23'141322.4
2016-May-19 06:27N 46°10' W 123°03'0 0.0
2016-May-19 05:33N 46°10' W 123°03'331043.6
2016-May-19 05:31N 46°11' W 123°51'3334.4
2016-May-19 04:33N 46°10' W 123°03'331052.7
2016-May-19 04:31N 46°11' W 123°51'20234.5
2016-May-19 04:26N 46°12' W 123°23'1415.8
2016-May-19 03:33N 46°10' W 123°03'331052.7
2016-May-19 03:31N 46°11' W 123°51'20105.8
2016-May-19 03:20N 46°12' W 123°23'2024.0
2016-May-19 02:31N 46°11' W 123°51'33487.9
2016-May-19 02:27N 46°10' W 123°03'14851.7
2016-May-19 02:26N 46°12' W 123°23'2021.4
2016-May-19 01:31N 46°11' W 123°51'331764.9
2016-May-19 01:30N 46°10' W 123°03'0 0.0
2016-May-19 00:33N 46°10' W 123°03'14881.6
2016-May-19 00:32N 46°12' W 123°23'201279.3
2016-May-19 00:31N 46°11' W 123°51'0 0.0
2016-May-18 23:32N 46°11' W 123°51'33468.8
2016-May-18 23:27N 46°10' W 123°03'141004.9
2016-May-18 23:26N 46°12' W 123°23'47558.6
2016-May-18 23:21N 45°34' W 122°43'3948.5
2016-May-18 22:33N 46°10' W 123°03'14881.5
2016-May-18 22:32N 46°12' W 123°23'201379.7
2016-May-18 22:31N 46°11' W 123°51'2019.8
2016-May-18 21:32N 46°12' W 123°23'201465.9
2016-May-18 21:32N 46°11' W 123°51'331579.1
2016-May-18 21:30N 46°10' W 123°03'1414.5
2016-May-18 20:32N 46°12' W 123°23'201497.1
2016-May-18 20:32N 46°11' W 123°51'331538.6
2016-May-18 20:30N 46°10' W 123°03'0 0.0
2016-May-18 19:33N 46°10' W 123°03'14897.3
2016-May-18 19:32N 46°12' W 123°23'201407.3
2016-May-18 19:32N 46°11' W 123°51'3334.3
2016-May-18 18:33N 46°10' W 123°03'14930.6
2016-May-18 18:32N 46°12' W 123°23'201279.4
2016-May-18 18:31N 46°11' W 123°51'3334.4
2016-May-18 17:33N 46°10' W 123°03'14913.6
2016-May-18 17:32N 46°12' W 123°23'201379.7
2016-May-18 17:32N 46°11' W 123°51'3334.3
2016-May-18 16:33N 46°10' W 123°03'331165.2
2016-May-18 16:32N 46°11' W 123°51'20189.7
2016-May-18 16:25N 46°12' W 123°23'1415.6
2016-May-18 15:32N 46°10' W 123°03'3313334.8
2016-May-18 15:32N 46°11' W 123°51'2081.0
2016-May-18 15:17N 46°12' W 123°23'1419.1
2016-May-18 14:33N 46°10' W 123°03'331121.6
2016-May-18 14:32N 46°11' W 123°51'20485.3
2016-May-18 14:29N 46°12' W 123°23'1415.0
2016-May-18 13:33N 46°10' W 123°03'331188.3
2016-May-18 13:32N 46°11' W 123°51'20481.9
2016-May-18 13:29N 46°12' W 123°23'1415.0
2016-May-18 12:33N 46°10' W 123°03'331224.6
2016-May-18 12:32N 46°11' W 123°51'20469.1
2016-May-18 12:29N 46°12' W 123°23'1415.0
2016-May-18 11:33N 46°10' W 123°03'331176.6
2016-May-18 11:32N 46°11' W 123°51'20475.4
2016-May-18 11:29N 46°12' W 123°23'2020.4
2016-May-18 10:32N 46°11' W 123°51'33458.1
2016-May-18 10:27N 46°10' W 123°03'14202.6
2016-May-18 10:23N 46°12' W 123°23'2022.7
2016-May-18 09:32N 46°11' W 123°51'331445.9
2016-May-18 09:30N 46°10' W 123°03'14749.9
2016-May-18 09:29N 46°12' W 123°23'1414.6
2016-May-18 08:32N 46°10' W 123°03'3317144.7
2016-May-18 08:32N 46°11' W 123°51'20138.2
2016-May-18 08:23N 46°12' W 123°23'471367.4
2016-May-18 08:21N 45°34' W 122°43'3947.3
2016-May-18 07:32N 46°10' W 123°03'3320002.2
2016-May-18 07:32N 46°11' W 123°51'20212.6
2016-May-18 07:26N 46°12' W 123°23'1415.4
2016-May-18 06:32N 46°10' W 123°03'3313334.8
2016-May-18 06:32N 46°11' W 123°51'20517.4
2016-May-18 06:29N 46°12' W 123°23'47593.5
2016-May-18 06:25N 45°34' W 122°43'4751.4
2016-May-18 05:29N 46°12' W 123°23'202513.0
2016-May-18 05:29N 46°11' W 123°51'33697.7
2016-May-18 05:26N 46°10' W 123°03'393108.8
2016-May-18 05:25N 45°34' W 122°43'3943.7
2016-May-18 04:32N 46°10' W 123°03'3320002.1
2016-May-18 04:32N 46°11' W 123°51'20137.7
2016-May-18 04:23N 46°12' W 123°23'47145.5
2016-May-18 04:03N 45°34' W 122°43'61114.0
2016-May-18 03:32N 46°11' W 123°51'33678.0
2016-May-18 03:29N 46°10' W 123°03'1447.6
2016-May-18 03:11N 46°12' W 123°23'471837.9
2016-May-18 03:10N 45°34' W 122°43'6195.8
2016-May-18 02:32N 46°11' W 123°51'20451.0
2016-May-18 02:29N 46°12' W 123°23'142791.5
2016-May-18 02:29N 46°10' W 123°03'3335.0
2016-May-18 01:32N 46°11' W 123°51'33337.1
2016-May-18 01:26N 46°10' W 123°03'1440.6
2016-May-18 01:05N 46°12' W 123°23'1425.1
2016-May-18 00:32N 46°10' W 123°03'3324002.5
2016-May-18 00:32N 46°11' W 123°51'20459.9
2016-May-18 00:29N 46°12' W 123°23'1414.6
2016-May-17 23:32N 46°10' W 123°03'3324002.7
2016-May-17 23:32N 46°11' W 123°51'2057.0
2016-May-17 23:11N 46°12' W 123°23'1421.3
2016-May-17 22:32N 46°10' W 123°03'3340004.2
2016-May-17 22:32N 46°11' W 123°51'20136.6
2016-May-17 22:23N 46°12' W 123°23'2022.8
2016-May-17 21:32N 46°11' W 123°51'3340004.2
2016-May-17 21:32N 46°10' W 123°03'14322.1
2016-May-17 21:29N 46°12' W 123°23'1414.6
2016-May-17 20:32N 46°10' W 123°03'3360006.3
2016-May-17 20:32N 46°11' W 123°51'20135.8
2016-May-17 20:23N 46°12' W 123°23'1416.3
2016-May-17 19:32N 46°10' W 123°03'33120012.6
2016-May-17 19:32N 46°11' W 123°51'20136.1
2016-May-17 19:23N 46°12' W 123°23'2022.8
2016-May-17 18:32N 46°11' W 123°51'33674.2
2016-May-17 18:29N 46°10' W 123°03'39218.9
2016-May-17 18:18N 45°34' W 122°43'472802.1
2016-May-17 18:17N 46°12' W 123°23'2025.9
2016-May-17 17:32N 46°11' W 123°51'20439.8
2016-May-17 17:29N 46°12' W 123°23'142512.3
2016-May-17 17:29N 46°10' W 123°03'3335.1
2016-May-17 16:32N 46°11' W 123°51'20421.3
2016-May-17 16:29N 46°12' W 123°23'142512.5
2016-May-17 16:29N 46°10' W 123°03'3335.2
2016-May-17 15:32N 46°11' W 123°51'20434.4
2016-May-17 15:29N 46°12' W 123°23'142184.6
2016-May-17 15:29N 46°10' W 123°03'39140.6
2016-May-17 15:12N 45°34' W 122°43'3957.8
2016-May-17 14:32N 46°10' W 123°03'3360006.3
2016-May-17 14:32N 46°11' W 123°51'2080.0
2016-May-17 14:17N 46°12' W 123°23'2025.9
2016-May-17 13:32N 46°11' W 123°51'3340004.5
2016-May-17 13:32N 46°10' W 123°03'1457.2
2016-May-17 13:17N 46°12' W 123°23'2025.9
2016-May-17 12:32N 46°11' W 123°51'33648.7
2016-May-17 12:29N 46°10' W 123°03'1447.4
2016-May-17 12:11N 46°12' W 123°23'2029.9
2016-May-17 11:32N 46°11' W 123°51'3317144.7
2016-May-17 11:32N 46°10' W 123°03'39311.5
2016-May-17 11:24N 45°34' W 122°43'472513.9
2016-May-17 11:23N 46°12' W 123°23'2022.9
2016-May-17 10:32N 46°11' W 123°51'3340004.2
2016-May-17 10:32N 46°10' W 123°03'14318.0
2016-May-17 10:29N 46°12' W 123°23'2020.5
2016-May-17 09:32N 46°11' W 123°51'3310910.2
2016-May-17 09:32N 46°10' W 123°03'14314.0
2016-May-17 09:29N 46°12' W 123°23'0 0.0
2016-May-17 08:32N 46°12' W 123°23'205863.6
2016-May-17 08:32N 46°11' W 123°51'3312001.3
2016-May-17 08:32N 46°10' W 123°03'3333.4
2016-May-17 07:32N 46°11' W 123°51'3330003.1
2016-May-17 07:32N 46°10' W 123°03'14320.0
2016-May-17 07:29N 46°12' W 123°23'47579.4
2016-May-17 07:24N 45°34' W 122°43'6169.4
2016-May-17 06:32N 46°11' W 123°51'33641.8
2016-May-17 06:29N 46°10' W 123°03'3335.2
2016-May-17 05:32N 46°11' W 123°51'33628.3
2016-May-17 05:29N 46°10' W 123°03'0 0.0
2016-May-17 04:33N 46°10' W 123°03'331481.6
2016-May-17 04:32N 46°11' W 123°51'20434.3
2016-May-17 04:29N 46°12' W 123°23'2020.5
2016-May-17 03:32N 46°11' W 123°51'331200.1
2016-May-17 03:30N 46°10' W 123°03'14749.9
2016-May-17 03:29N 46°12' W 123°23'2020.6
2016-May-17 02:32N 46°11' W 123°51'331071.5
2016-May-17 02:30N 46°10' W 123°03'1463.9
2016-May-17 02:17N 46°12' W 123°23'2026.0
2016-May-17 01:32N 46°11' W 123°51'331212.2
2016-May-17 01:30N 46°10' W 123°03'14688.3
2016-May-17 01:29N 46°12' W 123°23'1415.0
2016-May-17 00:33N 46°10' W 123°03'331558.6
2016-May-17 00:32N 46°11' W 123°51'61476.7
2016-May-17 00:24N 45°34' W 122°43'472441.8
2016-May-17 00:23N 46°12' W 123°23'1416.8
2016-May-16 23:33N 46°10' W 123°03'331621.8
2016-May-16 23:32N 46°11' W 123°51'20132.0
2016-May-16 23:23N 46°12' W 123°23'2022.9
2016-May-16 22:32N 46°11' W 123°51'331188.2
2016-May-16 22:30N 46°10' W 123°03'1463.8
2016-May-16 22:17N 46°12' W 123°23'1419.1
2016-May-16 21:33N 46°10' W 123°03'331644.0
2016-May-16 21:32N 46°11' W 123°51'20132.3
2016-May-16 21:23N 46°12' W 123°23'47170.2
2016-May-16 21:06N 45°34' W 122°43'3970.3
2016-May-16 20:33N 46°10' W 123°03'331579.1
2016-May-16 20:32N 46°11' W 123°51'603491.9
2016-May-16 20:31N 45°34' W 122°44'47364.5
2016-May-16 20:23N 46°12' W 123°23'4048.6
2016-May-16 19:33N 45°42' W 122°46'3111209.1
2016-May-16 19:33N 46°10' W 123°03'331644.0
2016-May-16 19:32N 46°11' W 123°51'20200.5
2016-May-16 19:26N 46°12' W 123°23'3438.5
2016-May-16 18:33N 45°50' W 122°47'234976.1
2016-May-16 18:33N 46°10' W 123°03'331579.1
2016-May-16 18:32N 46°11' W 123°51'20132.5
2016-May-16 18:23N 46°12' W 123°23'1416.8
2016-May-16 17:33N 46°10' W 123°03'164771.7
2016-May-16 17:33N 45°58' W 122°49'452668.6
2016-May-16 17:32N 46°11' W 123°51'4040.7
2016-May-16 16:33N 46°05' W 122°55'402212.6
2016-May-16 16:32N 46°11' W 123°51'331121.6
2016-May-16 16:30N 46°10' W 123°03'14118.2
2016-May-16 16:23N 46°12' W 123°23'1416.8
2016-May-16 15:33N 46°10' W 123°03'026.2
2016-May-16 15:32N 46°10' W 123°03'3417302.1
2016-May-16 15:32N 46°11' W 123°51'20132.5
2016-May-16 15:23N 46°12' W 123°23'1416.8
2016-May-16 14:33N 46°10' W 123°03'331644.0
2016-May-16 14:32N 46°11' W 123°51'33300.8
2016-May-16 14:25N 46°10' W 123°03'14361.5
2016-May-16 14:23N 46°12' W 123°23'2023.0
2016-May-16 13:32N 46°11' W 123°51'331081.2
2016-May-16 13:30N 46°10' W 123°03'0 0.4
2016-May-16 13:28N 46°10' W 123°03'1448.5
2016-May-16 13:11N 46°12' W 123°23'1422.1
2016-May-16 12:33N 46°10' W 123°03'331666.8
2016-May-16 12:32N 46°11' W 123°51'20399.8
2016-May-16 12:29N 46°12' W 123°23'144567.6
2016-May-16 12:29N 46°10' W 123°03'3335.2
2016-May-16 11:32N 46°11' W 123°51'33255.3
2016-May-16 11:24N 46°10' W 123°03'14785.2
2016-May-16 11:23N 46°12' W 123°23'14134.3
2016-May-16 11:17N 46°10' W 123°03'0 0.0
2016-May-16 10:33N 46°10' W 123°03'331764.9
2016-May-16 10:32N 46°11' W 123°51'3312001.2
2016-May-16 10:32N 46°10' W 123°03'1495.2
2016-May-16 10:23N 46°12' W 123°23'2023.0
2016-May-16 09:32N 46°11' W 123°51'333243.6
2016-May-16 09:31N 46°10' W 123°03'0 0.3
2016-May-16 09:30N 46°10' W 123°03'1464.3
2016-May-16 09:17N 46°12' W 123°23'1419.0
2016-May-16 08:33N 46°10' W 123°03'331791.2
2016-May-16 08:32N 46°11' W 123°51'33302.3
2016-May-16 08:25N 46°10' W 123°03'14100.3
2016-May-16 08:17N 46°12' W 123°23'2026.0
2016-May-16 07:32N 46°11' W 123°51'331091.0
2016-May-16 07:30N 46°10' W 123°03'0 0.2
2016-May-16 07:28N 46°10' W 123°03'0 0.0
2016-May-16 06:33N 46°10' W 123°03'331764.9
2016-May-16 06:32N 46°11' W 123°51'333333.7
2016-May-16 06:31N 46°10' W 123°03'0 0.0
2016-May-16 05:33N 46°10' W 123°03'331818.4
2016-May-16 05:32N 46°11' W 123°51'20395.3
2016-May-16 05:29N 46°12' W 123°23'141395.6
2016-May-16 05:29N 46°10' W 123°03'0 0.0
2016-May-16 04:33N 46°10' W 123°03'331714.5
2016-May-16 04:32N 46°11' W 123°51'333333.7
2016-May-16 04:31N 46°10' W 123°03'14356.3
2016-May-16 04:29N 46°12' W 123°23'1415.0
2016-May-16 03:33N 46°10' W 123°03'331818.4
2016-May-16 03:32N 46°11' W 123°51'20395.3
2016-May-16 03:29N 46°12' W 123°23'141288.3
2016-May-16 03:28N 46°10' W 123°03'0 0.0
2016-May-16 02:33N 46°10' W 123°03'331846.3
2016-May-16 02:32N 46°11' W 123°51'333243.6
2016-May-16 02:31N 46°10' W 123°03'1499.9
2016-May-16 02:23N 46°12' W 123°23'1416.8
2016-May-16 01:33N 46°10' W 123°03'331791.2
2016-May-16 01:32N 46°11' W 123°51'333333.6
2016-May-16 01:31N 46°10' W 123°03'14356.3
2016-May-16 01:29N 46°12' W 123°23'1415.0
2016-May-16 00:33N 46°10' W 123°03'331690.3
2016-May-16 00:32N 46°11' W 123°51'333529.8
2016-May-16 00:31N 46°10' W 123°03'1458.2
2016-May-16 00:17N 46°12' W 123°23'2026.1
2016-May-15 23:32N 46°11' W 123°51'33571.5
2016-May-15 23:29N 46°10' W 123°03'0 2.4
2016-May-15 23:28N 46°10' W 123°03'1473.2
2016-May-15 23:17N 46°12' W 123°23'0 0.0
2016-May-15 22:33N 46°12' W 123°23'201213.2
2016-May-15 22:32N 46°11' W 123°51'333077.2
2016-May-15 22:31N 46°10' W 123°03'0 0.1
2016-May-15 22:29N 46°10' W 123°03'3335.4
2016-May-15 21:32N 46°11' W 123°51'203909.1
2016-May-15 21:32N 46°12' W 123°23'144567.9
2016-May-15 21:32N 46°10' W 123°03'0 2.4
2016-May-15 21:32N 46°10' W 123°03'3333.7
2016-May-15 20:32N 46°11' W 123°51'204139.0
2016-May-15 20:32N 46°12' W 123°23'145025.0
2016-May-15 20:32N 46°10' W 123°03'0 0.1
2016-May-15 20:25N 46°10' W 123°03'1415.6
2016-May-15 19:32N 46°12' W 123°23'145025.0
2016-May-15 19:32N 46°10' W 123°03'0 3.6
2016-May-15 19:32N 46°10' W 123°03'33839.2
2016-May-15 19:29N 46°11' W 123°51'0 0.0
2016-May-15 18:32N 46°11' W 123°51'333871.4
2016-May-15 18:32N 46°10' W 123°03'14295.6
2016-May-15 18:29N 46°12' W 123°23'143349.5
2016-May-15 18:29N 46°10' W 123°03'3335.5
2016-May-15 17:32N 46°11' W 123°51'203909.1
2016-May-15 17:32N 46°12' W 123°23'144568.2
2016-May-15 17:32N 46°10' W 123°03'0 0.2
2016-May-15 17:29N 46°10' W 123°03'  
Track history (hours):
 
Tides and Currents Weather Stations Pressure Air Temp Water Temp Dewpoint Dewpoint Depression Visibility Wind Speed Wind Dir Waves Ship Positions

Zarling

Owner: Clean Rivers Co-op, Portland, OR. More information available from US FCC via Universal Licensing System.

Last reported at 2016-May-25 16:33 UTC. Time now 2016-May-25 16:55 UTC.
Position N 46°11' W 123°51'.

Length 12 m.

Type: Pollution control. MMSI: 3699126.

Date/timePositionNaut miles runAvg speedWind from/ knotsBaromVisibWave heightAir tempDewpointWater temp
2016-May-25 16:33N 46°11' W 123°51'331935.7
2016-May-25 16:32N 46°10' W 123°03'14750.0
2016-May-25 16:31N 46°12' W 123°23'2020.3
2016-May-25 15:33N 46°11' W 123°51'20541.3
2016-May-25 15:31N 46°12' W 123°23'1477.1
2016-May-25 15:20N 46°10' W 123°03'3342.6
2016-May-25 14:33N 46°11' W 123°51'20537.1
2016-May-25 14:31N 46°12' W 123°23'1477.1
2016-May-25 14:20N 46°10' W 123°03'3342.6
2016-May-25 13:33N 46°11' W 123°51'331905.0
2016-May-25 13:32N 46°10' W 123°03'1463.6
2016-May-25 13:19N 46°12' W 123°23'2025.6
2016-May-25 12:33N 46°11' W 123°51'332000.2
2016-May-25 12:32N 46°10' W 123°03'3333.9
2016-May-25 11:33N 46°11' W 123°51'331935.7
2016-May-25 11:32N 46°10' W 123°03'1451.9
2016-May-25 11:16N 46°12' W 123°23'2027.4
2016-May-25 10:33N 46°11' W 123°51'33489.8
2016-May-25 10:29N 46°10' W 123°03'1482.5
2016-May-25 10:19N 46°12' W 123°23'2025.6
2016-May-25 09:33N 46°11' W 123°51'331905.0
2016-May-25 09:32N 46°10' W 123°03'1463.5
2016-May-25 09:19N 46°12' W 123°23'2025.6
2016-May-25 08:33N 46°11' W 123°51'331818.4
2016-May-25 08:32N 46°10' W 123°03'14201.8
2016-May-25 08:28N 46°12' W 123°23'2021.4
2016-May-25 07:33N 46°11' W 123°51'331764.9
2016-May-25 07:32N 46°10' W 123°03'14116.9
2016-May-25 07:25N 46°12' W 123°23'2022.7
2016-May-25 06:33N 46°11' W 123°51'331791.2
2016-May-25 06:32N 46°10' W 123°03'14117.9
2016-May-25 06:25N 46°12' W 123°23'2022.6
2016-May-25 05:33N 46°11' W 123°51'331875.2
2016-May-25 05:32N 46°10' W 123°03'14749.9
2016-May-25 05:31N 46°12' W 123°23'2020.3
2016-May-25 04:33N 46°11' W 123°51'331846.4
2016-May-25 04:32N 46°10' W 123°03'14717.9
2016-May-25 04:31N 46°12' W 123°23'2020.3
2016-May-25 03:33N 46°11' W 123°51'331791.2
2016-May-25 03:32N 46°10' W 123°03'14697.9
2016-May-25 03:31N 46°12' W 123°23'1414.2
2016-May-25 02:32N 46°10' W 123°03'331132.2
2016-May-25 02:30N 46°11' W 123°51'0 0.0
2016-May-25 01:33N 46°11' W 123°51'331818.4
2016-May-25 01:32N 46°10' W 123°03'3334.0
2016-May-25 00:33N 46°11' W 123°51'331621.8
2016-May-25 00:32N 46°10' W 123°03'3334.0
2016-May-24 23:33N 46°11' W 123°51'33472.5
2016-May-24 23:29N 46°10' W 123°03'1463.9
2016-May-24 23:16N 46°12' W 123°23'2027.5
2016-May-24 22:33N 46°11' W 123°51'331714.5
2016-May-24 22:32N 46°10' W 123°03'1463.4
2016-May-24 22:19N 46°12' W 123°23'2025.7
2016-May-24 21:33N 46°11' W 123°51'20513.6
2016-May-24 21:31N 46°12' W 123°23'14171.5
2016-May-24 21:26N 46°10' W 123°03'3337.9
2016-May-24 20:33N 46°11' W 123°51'33482.0
2016-May-24 20:29N 46°10' W 123°03'14202.6
2016-May-24 20:25N 46°12' W 123°23'2022.7
2016-May-24 19:33N 46°11' W 123°51'331690.3
2016-May-24 19:32N 46°10' W 123°03'1433.3
2016-May-24 19:07N 46°12' W 123°23'2034.8
2016-May-24 18:33N 46°11' W 123°51'331690.3
2016-May-24 18:32N 46°10' W 123°03'14773.1
2016-May-24 18:31N 46°12' W 123°23'0 0.0
2016-May-24 17:31N 46°12' W 123°23'201759.1
2016-May-24 17:30N 46°11' W 123°51'33196.1
2016-May-24 17:20N 46°10' W 123°03'3342.7
2016-May-24 16:33N 46°11' W 123°51'331666.8
2016-May-24 16:32N 46°10' W 123°03'14749.9
2016-May-24 16:31N 46°12' W 123°23'2020.3
2016-May-24 15:33N 46°11' W 123°51'331644.0
2016-May-24 15:32N 46°10' W 123°03'14707.7
2016-May-24 15:31N 46°12' W 123°23'2020.4
2016-May-24 14:33N 46°11' W 123°51'331621.8
2016-May-24 14:32N 46°10' W 123°03'14728.2
2016-May-24 14:31N 46°12' W 123°23'47215.3
2016-May-24 14:18N 45°34' W 122°43'3951.1
2016-May-24 13:32N 46°10' W 123°03'331165.2
2016-May-24 13:30N 46°11' W 123°51'61544.6
2016-May-24 13:24N 45°34' W 122°43'6172.1
2016-May-24 12:33N 46°11' W 123°51'33274.6
2016-May-24 12:26N 46°10' W 123°03'3335.9
2016-May-24 11:30N 46°11' W 123°51'33467.0
2016-May-24 11:26N 46°10' W 123°03'3338.0
2016-May-24 10:33N 46°11' W 123°51'331500.1
2016-May-24 10:32N 46°10' W 123°03'39278.7
2016-May-24 10:24N 45°34' W 122°43'3945.2
2016-May-24 09:32N 46°10' W 123°03'331165.2
2016-May-24 09:30N 46°11' W 123°51'615446.0
2016-May-24 09:30N 45°34' W 122°43'47265.8
2016-May-24 09:19N 46°12' W 123°23'1417.8
2016-May-24 08:32N 46°10' W 123°03'331212.2
2016-May-24 08:30N 46°11' W 123°51'2067.4
2016-May-24 08:13N 46°12' W 123°23'2029.6
2016-May-24 07:33N 46°11' W 123°51'331481.6
2016-May-24 07:32N 46°10' W 123°03'14707.7
2016-May-24 07:31N 46°12' W 123°23'47148.9
2016-May-24 07:12N 45°34' W 122°43'3958.9
2016-May-24 06:32N 46°10' W 123°03'14688.3
2016-May-24 06:31N 46°12' W 123°23'202198.9
2016-May-24 06:30N 46°11' W 123°51'615585.7
2016-May-24 06:30N 45°34' W 122°43'6164.5
2016-May-24 05:33N 46°11' W 123°51'331481.6
2016-May-24 05:32N 46°10' W 123°03'14738.9
2016-May-24 05:31N 46°12' W 123°23'2020.4
2016-May-24 04:33N 46°11' W 123°51'20472.2
2016-May-24 04:31N 46°12' W 123°23'47399.4
2016-May-24 04:24N 45°34' W 122°43'393586.6
2016-May-24 04:23N 46°10' W 123°03'3338.0
2016-May-24 03:30N 46°11' W 123°51'331395.5
2016-May-24 03:29N 46°10' W 123°03'1451.9
2016-May-24 03:13N 46°12' W 123°23'2029.7
2016-May-24 02:33N 46°11' W 123°51'331481.6
2016-May-24 02:32N 46°10' W 123°03'1463.6
2016-May-24 02:19N 46°12' W 123°23'472513.6
2016-May-24 02:18N 45°34' W 122°43'6181.9
2016-May-24 01:33N 46°11' W 123°51'331428.7
2016-May-24 01:32N 46°10' W 123°03'14761.3
2016-May-24 01:31N 46°12' W 123°23'2020.4
2016-May-24 00:33N 46°11' W 123°51'20938.2
2016-May-24 00:32N 46°12' W 123°23'145583.3
2016-May-24 00:32N 46°10' W 123°03'3334.2
2016-May-23 23:33N 46°11' W 123°51'331379.5
2016-May-23 23:32N 46°10' W 123°03'1464.2
2016-May-23 23:19N 46°12' W 123°23'471709.3
2016-May-23 23:17N 45°34' W 122°43'6182.8
2016-May-23 22:33N 46°11' W 123°51'331428.7
2016-May-23 22:32N 46°10' W 123°03'14707.7
2016-May-23 22:31N 46°12' W 123°23'2020.4
2016-May-23 21:33N 46°11' W 123°51'33454.6
2016-May-23 21:29N 46°10' W 123°03'3334.2
2016-May-23 20:30N 46°11' W 123°51'331411.9
2016-May-23 20:29N 46°10' W 123°03'3336.0
2016-May-23 19:33N 46°11' W 123°51'331379.5
2016-May-23 19:32N 46°10' W 123°03'1443.8
2016-May-23 19:13N 46°12' W 123°23'2029.8
2016-May-23 18:33N 46°11' W 123°51'331428.7
2016-May-23 18:32N 46°10' W 123°03'14697.9
2016-May-23 18:31N 46°12' W 123°23'2020.4
2016-May-23 17:33N 46°11' W 123°51'20451.0
2016-May-23 17:31N 46°12' W 123°23'14106.2
2016-May-23 17:23N 46°10' W 123°03'3340.4
2016-May-23 16:33N 46°11' W 123°51'331445.9
2016-May-23 16:32N 46°10' W 123°03'3334.1
2016-May-23 15:33N 46°11' W 123°51'331363.8
2016-May-23 15:32N 46°10' W 123°03'1463.8
2016-May-23 15:19N 46°12' W 123°23'2025.8
2016-May-23 14:33N 46°11' W 123°51'33269.7
2016-May-23 14:26N 46°10' W 123°03'14773.0
2016-May-23 14:25N 46°12' W 123°23'2022.8
2016-May-23 13:33N 46°11' W 123°51'331379.5
2016-May-23 13:32N 46°10' W 123°03'3334.2
2016-May-23 12:33N 46°11' W 123°51'33446.1
2016-May-23 12:29N 46°10' W 123°03'3336.0
2016-May-23 11:33N 46°11' W 123°51'331348.5
2016-May-23 11:32N 46°10' W 123°03'39209.1
2016-May-23 11:21N 45°34' W 122°43'47357.6
2016-May-23 11:13N 46°12' W 123°23'2029.8
2016-May-23 10:34N 46°11' W 123°51'615585.7
2016-May-23 10:33N 45°34' W 122°43'39603.0
2016-May-23 10:29N 46°10' W 123°03'1437.9
2016-May-23 10:07N 46°12' W 123°23'2035.1
2016-May-23 09:34N 46°11' W 123°51'331333.5
2016-May-23 09:32N 46°10' W 123°03'39412.7
2016-May-23 09:26N 45°34' W 122°43'6168.7
2016-May-23 08:33N 46°11' W 123°51'33267.9
2016-May-23 08:26N 46°10' W 123°03'14117.4
2016-May-23 08:19N 46°12' W 123°23'2025.8
2016-May-23 07:34N 46°11' W 123°51'33191.4
2016-May-23 07:23N 46°10' W 123°03'1482.1
2016-May-23 07:13N 46°12' W 123°23'1420.5
2016-May-23 06:32N 46°10' W 123°03'331333.5
2016-May-23 06:31N 46°11' W 123°51'20208.2
2016-May-23 06:25N 46°12' W 123°23'2022.8
2016-May-23 05:34N 46°11' W 123°51'331318.8
2016-May-23 05:32N 46°10' W 123°03'39417.5
2016-May-23 05:26N 45°34' W 122°43'471857.9
2016-May-23 05:25N 46°12' W 123°23'1415.8
2016-May-23 04:32N 46°10' W 123°03'331333.5
2016-May-23 04:31N 46°11' W 123°51'20100.5
2016-May-23 04:19N 46°12' W 123°23'1417.9
2016-May-23 03:32N 46°10' W 123°03'14738.9
2016-May-23 03:31N 46°12' W 123°23'203703.4
2016-May-23 03:31N 46°11' W 123°51'0 0.0
2016-May-23 02:34N 46°11' W 123°51'20205.1
2016-May-23 02:28N 46°12' W 123°23'14461.0
2016-May-23 02:26N 46°10' W 123°03'0 0.0
2016-May-23 01:32N 46°10' W 123°03'331445.9
2016-May-23 01:31N 46°11' W 123°51'0 0.0
2016-May-23 00:31N 46°11' W 123°51'33436.4
2016-May-23 00:26N 46°10' W 123°03'1463.6
2016-May-23 00:13N 46°12' W 123°23'1420.5
2016-May-22 23:32N 46°10' W 123°03'14738.9
2016-May-22 23:31N 46°12' W 123°23'204397.7
2016-May-22 23:31N 46°11' W 123°51'0 0.0
2016-May-22 22:31N 46°11' W 123°51'331212.2
2016-May-22 22:29N 46°10' W 123°03'14728.2
2016-May-22 22:28N 46°12' W 123°23'4751.5
2016-May-22 21:32N 45°34' W 122°43'471780.5
2016-May-22 21:31N 46°12' W 123°23'205026.0
2016-May-22 21:31N 46°11' W 123°51'331250.1
2016-May-22 21:29N 46°10' W 123°03'0 0.0
2016-May-22 20:32N 46°10' W 123°03'14717.8
2016-May-22 20:31N 46°12' W 123°23'205863.6
2016-May-22 20:31N 46°11' W 123°51'2019.6
2016-May-22 19:31N 46°12' W 123°23'205026.0
2016-May-22 19:31N 46°11' W 123°51'33430.2
2016-May-22 19:26N 46°10' W 123°03'0 0.0
2016-May-22 18:32N 46°10' W 123°03'14761.4
2016-May-22 18:31N 46°12' W 123°23'204691.0
2016-May-22 18:31N 46°11' W 123°51'3334.2
2016-May-22 17:32N 46°10' W 123°03'14115.8
2016-May-22 17:25N 46°12' W 123°23'205412.6
2016-May-22 17:25N 46°11' W 123°51'3338.0
2016-May-22 16:32N 46°10' W 123°03'14749.9
2016-May-22 16:31N 46°12' W 123°23'204690.9
2016-May-22 16:31N 46°11' W 123°51'61358.9
2016-May-22 16:21N 45°34' W 122°43'3948.2
2016-May-22 15:32N 46°10' W 123°03'14707.7
2016-May-22 15:31N 46°12' W 123°23'205026.0
2016-May-22 15:31N 46°11' W 123°51'0 0.0
2016-May-22 14:31N 46°11' W 123°51'33412.4
2016-May-22 14:26N 46°10' W 123°03'1463.7
2016-May-22 14:13N 46°12' W 123°23'2027.8
2016-May-22 13:31N 46°11' W 123°51'20858.1
2016-May-22 13:29N 46°12' W 123°23'142284.1
2016-May-22 13:29N 46°10' W 123°03'3334.3
2016-May-22 12:31N 46°11' W 123°51'331188.2
2016-May-22 12:29N 46°10' W 123°03'1447.5
2016-May-22 12:11N 46°12' W 123°23'2028.9
2016-May-22 11:31N 46°11' W 123°51'331143.0
2016-May-22 11:29N 46°10' W 123°03'1447.5
2016-May-22 11:11N 46°12' W 123°23'1421.4
2016-May-22 10:32N 46°10' W 123°03'331333.5
2016-May-22 10:31N 46°11' W 123°51'61225.0
2016-May-22 10:15N 45°34' W 122°43'3954.8
2016-May-22 09:32N 46°10' W 123°03'331579.1
2016-May-22 09:31N 46°11' W 123°51'3334.0
2016-May-22 08:32N 46°10' W 123°03'331621.8
2016-May-22 08:31N 46°11' W 123°51'3334.0
2016-May-22 07:32N 46°10' W 123°03'331579.1
2016-May-22 07:31N 46°11' W 123°51'20159.2
2016-May-22 07:23N 46°12' W 123°23'1416.3
2016-May-22 06:32N 46°10' W 123°03'14310.2
2016-May-22 06:29N 46°12' W 123°23'20733.0
2016-May-22 06:28N 46°11' W 123°51'3335.9
2016-May-22 05:32N 46°10' W 123°03'331579.1
2016-May-22 05:31N 46°11' W 123°51'20837.7
2016-May-22 05:29N 46°12' W 123°23'1414.6
2016-May-22 04:32N 46°10' W 123°03'331558.6
2016-May-22 04:31N 46°11' W 123°51'20158.5
2016-May-22 04:23N 46°12' W 123°23'1416.3
2016-May-22 03:32N 46°10' W 123°03'331558.6
2016-May-22 03:31N 46°11' W 123°51'2087.5
2016-May-22 03:17N 46°12' W 123°23'1418.5
2016-May-22 02:32N 46°10' W 123°03'331621.8
2016-May-22 02:31N 46°11' W 123°51'20157.8
2016-May-22 02:23N 46°12' W 123°23'2022.3
2016-May-22 01:31N 46°11' W 123°51'20818.2
2016-May-22 01:29N 46°12' W 123°23'142284.1
2016-May-22 01:29N 46°10' W 123°03'0 0.0
2016-May-22 00:32N 46°10' W 123°03'331714.5
2016-May-22 00:31N 46°11' W 123°51'20756.6
2016-May-22 00:29N 46°12' W 123°23'1414.6
2016-May-21 23:32N 46°10' W 123°03'331558.6
2016-May-21 23:31N 46°11' W 123°51'20818.2
2016-May-21 23:29N 46°12' W 123°23'1414.6
2016-May-21 22:32N 46°10' W 123°03'331714.5
2016-May-21 22:31N 46°11' W 123°51'20808.8
2016-May-21 22:29N 46°12' W 123°23'1414.6
2016-May-21 21:32N 46°10' W 123°03'331714.5
2016-May-21 21:31N 46°11' W 123°51'2060.2
2016-May-21 21:11N 46°12' W 123°23'2029.0
2016-May-21 20:31N 46°11' W 123°51'20756.6
2016-May-21 20:29N 46°12' W 123°23'14250.0
2016-May-21 20:26N 46°10' W 123°03'3336.2
2016-May-21 19:31N 46°11' W 123°51'331081.2
2016-May-21 19:29N 46°10' W 123°03'1447.5
2016-May-21 19:11N 46°12' W 123°23'2029.0
2016-May-21 18:31N 46°11' W 123°51'20773.2
2016-May-21 18:29N 46°12' W 123°23'14250.0
2016-May-21 18:26N 46°10' W 123°03'3336.3
2016-May-21 17:31N 46°11' W 123°51'20748.6
2016-May-21 17:29N 46°12' W 123°23'142644.6
2016-May-21 17:29N 46°10' W 123°03'0 0.0
2016-May-21 16:32N 46°10' W 123°03'331791.2
2016-May-21 16:31N 46°11' W 123°51'2086.4
2016-May-21 16:17N 46°12' W 123°23'4763.9
2016-May-21 15:33N 45°34' W 122°43'611962.5
2016-May-21 15:31N 46°11' W 123°51'20773.2
2016-May-21 15:29N 46°12' W 123°23'14252.5
2016-May-21 15:26N 46°10' W 123°03'0 0.0
2016-May-21 14:32N 46°10' W 123°03'331818.4
2016-May-21 14:31N 46°11' W 123°51'61871.4
2016-May-21 14:27N 45°34' W 122°43'47833.8
2016-May-21 14:23N 46°12' W 123°23'2022.4
2016-May-21 13:31N 46°11' W 123°51'20764.8
2016-May-21 13:29N 46°12' W 123°23'142512.3
2016-May-21 13:29N 46°10' W 123°03'3941.5
2016-May-21 12:33N 45°34' W 122°43'392797.9
2016-May-21 12:32N 46°10' W 123°03'33487.9
2016-May-21 12:28N 46°11' W 123°51'2052.0
2016-May-21 12:05N 46°12' W 123°23'4787.5
2016-May-21 11:33N 45°34' W 122°43'611962.5
2016-May-21 11:31N 46°11' W 123°51'331043.6
2016-May-21 11:29N 46°10' W 123°03'1435.4
2016-May-21 11:05N 46°12' W 123°23'1425.1
2016-May-21 10:32N 46°10' W 123°03'331875.2
2016-May-21 10:31N 46°11' W 123°51'20154.0
2016-May-21 10:23N 46°12' W 123°23'47196.0
2016-May-21 10:09N 45°34' W 122°43'3963.4
2016-May-21 09:32N 46°10' W 123°03'33493.9
2016-May-21 09:28N 46°11' W 123°51'20254.0
2016-May-21 09:23N 46°12' W 123°23'1416.3
2016-May-21 08:32N 46°10' W 123°03'331905.0
2016-May-21 08:31N 46°11' W 123°51'20764.8
2016-May-21 08:29N 46°12' W 123°23'1414.6
2016-May-21 07:32N 46°10' W 123°03'331846.3
2016-May-21 07:31N 46°11' W 123°51'20154.6
2016-May-21 07:23N 46°12' W 123°23'1416.3
2016-May-21 06:32N 46°10' W 123°03'331905.0
2016-May-21 06:31N 46°11' W 123°51'20748.6
2016-May-21 06:29N 46°12' W 123°23'471117.2
2016-May-21 06:27N 45°34' W 122°43'3942.5
2016-May-21 05:32N 46°10' W 123°03'331875.2
2016-May-21 05:31N 46°11' W 123°51'20154.6
2016-May-21 05:23N 46°12' W 123°23'1416.3
2016-May-21 04:32N 46°10' W 123°03'332000.2
2016-May-21 04:31N 46°11' W 123°51'61867.9
2016-May-21 04:27N 45°34' W 122°43'3942.5
2016-May-21 03:32N 46°10' W 123°03'331967.4
2016-May-21 03:31N 46°11' W 123°51'61864.4
2016-May-21 03:27N 45°34' W 122°43'47300.4
2016-May-21 03:17N 46°12' W 123°23'1418.5
2016-May-21 02:32N 46°10' W 123°03'332000.2
2016-May-21 02:31N 46°11' W 123°51'61358.9
2016-May-21 02:21N 45°34' W 122°43'47810.1
2016-May-21 02:17N 46°12' W 123°23'1418.5
2016-May-21 01:32N 46°10' W 123°03'332069.2
2016-May-21 01:31N 46°11' W 123°51'20152.0
2016-May-21 01:23N 46°12' W 123°23'1416.3
2016-May-21 00:32N 46°10' W 123°03'332264.4
2016-May-21 00:31N 46°11' W 123°51'2059.3
2016-May-21 00:11N 46°12' W 123°23'2029.1
2016-May-20 23:31N 46°11' W 123°51'61871.4
2016-May-20 23:27N 45°34' W 122°43'392543.2
2016-May-20 23:26N 46°10' W 123°03'1457.2
2016-May-20 23:11N 46°12' W 123°23'1421.3
2016-May-20 22:32N 46°10' W 123°03'332000.2
2016-May-20 22:31N 46°11' W 123°51'61592.0
2016-May-20 22:25N 45°34' W 122°43'471837.9
2016-May-20 22:23N 46°12' W 123°23'1416.3
2016-May-20 21:32N 46°10' W 123°03'332000.2
2016-May-20 21:31N 46°11' W 123°51'20152.6
2016-May-20 21:23N 46°12' W 123°23'1416.3
2016-May-20 20:32N 46°10' W 123°03'332069.2
2016-May-20 20:31N 46°11' W 123°51'20703.6
2016-May-20 20:29N 46°12' W 123°23'1414.6
2016-May-20 19:32N 46°10' W 123°03'332069.2
2016-May-20 19:31N 46°11' W 123°51'20154.0
2016-May-20 19:23N 46°12' W 123°23'1416.3
2016-May-20 18:32N 46°10' W 123°03'332034.1
2016-May-20 18:31N 46°11' W 123°51'2085.8
2016-May-20 18:17N 46°12' W 123°23'1418.4
2016-May-20 17:32N 46°10' W 123°03'332264.4
2016-May-20 17:31N 46°11' W 123°51'20676.6
2016-May-20 17:29N 46°12' W 123°23'2020.1
2016-May-20 16:31N 46°11' W 123°51'33960.1
2016-May-20 16:29N 46°10' W 123°03'14147.8
2016-May-20 16:23N 46°12' W 123°23'1416.3
2016-May-20 15:32N 46°10' W 123°03'332182.0
2016-May-20 15:31N 46°11' W 123°51'20663.8
2016-May-20 15:29N 46°12' W 123°23'1414.6
2016-May-20 14:32N 46°10' W 123°03'332182.0
2016-May-20 14:31N 46°11' W 123°51'20683.1
2016-May-20 14:29N 46°12' W 123°23'1414.6
2016-May-20 13:32N 46°10' W 123°03'332143.1
2016-May-20 13:31N 46°11' W 123°51'20676.6
2016-May-20 13:29N 46°12' W 123°23'2020.1
2016-May-20 12:31N 46°11' W 123°51'613251.4
2016-May-20 12:30N 45°34' W 122°43'474382.7
2016-May-20 12:29N 46°12' W 123°23'14246.3
2016-May-20 12:26N 46°10' W 123°03'0 0.0
2016-May-20 11:32N 46°10' W 123°03'332308.0
2016-May-20 11:31N 46°11' W 123°51'20657.6
2016-May-20 11:29N 46°12' W 123°23'47529.2
2016-May-20 11:24N 45°34' W 122°43'3944.9
2016-May-20 10:32N 46°10' W 123°03'332500.3
2016-May-20 10:31N 46°11' W 123°51'2059.0
2016-May-20 10:11N 46°12' W 123°23'1421.3
2016-May-20 09:32N 46°10' W 123°03'332308.0
2016-May-20 09:31N 46°11' W 123°51'20151.0
2016-May-20 09:23N 46°12' W 123°23'2022.5
2016-May-20 08:31N 46°11' W 123°51'33245.4
2016-May-20 08:23N 46°10' W 123°03'3338.6
2016-May-20 07:31N 46°11' W 123°51'33952.5
2016-May-20 07:29N 46°10' W 123°03'1471.6
2016-May-20 07:17N 46°12' W 123°23'1418.5
2016-May-20 06:32N 46°10' W 123°03'332449.2
2016-May-20 06:31N 46°11' W 123°51'2084.6
2016-May-20 06:17N 46°12' W 123°23'2025.4
2016-May-20 05:31N 46°11' W 123°51'20639.7
2016-May-20 05:29N 46°12' W 123°23'1414.6
2016-May-20 04:32N 46°10' W 123°03'332791.0
2016-May-20 04:31N 46°11' W 123°51'20148.4
2016-May-20 04:23N 46°12' W 123°23'2022.5
2016-May-20 03:31N 46°11' W 123°51'20622.7
2016-May-20 03:29N 46°12' W 123°23'142184.6
2016-May-20 03:29N 46°10' W 123°03'3332.9
2016-May-20 02:28N 46°11' W 123°51'33889.0
2016-May-20 02:26N 46°10' W 123°03'14318.0
2016-May-20 02:23N 46°12' W 123°23'1416.3
2016-May-20 01:32N 46°10' W 123°03'332609.0
2016-May-20 01:31N 46°11' W 123°51'20622.7
2016-May-20 01:29N 46°12' W 123°23'1414.6
2016-May-20 00:32N 46°10' W 123°03'332449.2
2016-May-20 00:31N 46°11' W 123°51'2084.6
2016-May-20 00:17N 46°12' W 123°23'2025.4
2016-May-19 23:31N 46°11' W 123°51'20628.2
2016-May-19 23:29N 46°12' W 123°23'14252.5
2016-May-19 23:26N 46°10' W 123°03'39529.8
2016-May-19 23:22N 45°34' W 122°43'3947.0
2016-May-19 22:32N 46°10' W 123°03'332553.5
2016-May-19 22:31N 46°11' W 123°51'20622.7
2016-May-19 22:29N 46°12' W 123°23'1414.6
2016-May-19 21:32N 46°10' W 123°03'332791.0
2016-May-19 21:31N 46°11' W 123°51'0 0.0
2016-May-19 20:31N 46°11' W 123°51'33381.0
2016-May-19 20:26N 46°10' W 123°03'1457.1
2016-May-19 20:11N 46°12' W 123°23'2029.3
2016-May-19 19:31N 46°11' W 123°51'33851.2
2016-May-19 19:29N 46°10' W 123°03'1464.0
2016-May-19 19:16N 46°12' W 123°23'1419.8
2016-May-19 18:34N 46°10' W 123°03'33882.4
2016-May-19 18:31N 46°11' W 123°51'20348.3
2016-May-19 18:28N 46°12' W 123°23'47773.4
2016-May-19 18:24N 45°34' W 122°43'6168.7
2016-May-19 17:31N 46°11' W 123°51'20339.9
2016-May-19 17:28N 46°12' W 123°23'14250.0
2016-May-19 17:25N 46°10' W 123°03'0 0.0
2016-May-19 16:33N 46°10' W 123°03'33937.6
2016-May-19 16:31N 46°11' W 123°51'20123.9
2016-May-19 16:22N 46°12' W 123°23'2023.2
2016-May-19 15:31N 46°11' W 123°51'332609.0
2016-May-19 15:31N 46°10' W 123°03'14310.2
2016-May-19 15:28N 46°12' W 123°23'1415.4
2016-May-19 14:34N 46°10' W 123°03'33902.4
2016-May-19 14:31N 46°11' W 123°51'2054.7
2016-May-19 14:10N 46°12' W 123°23'1422.9
2016-May-19 13:33N 46°10' W 123°03'331052.7
2016-May-19 13:31N 46°11' W 123°51'20338.3
2016-May-19 13:28N 46°12' W 123°23'2020.8
2016-May-19 12:31N 46°11' W 123°51'331739.3
2016-May-19 12:30N 46°10' W 123°03'14351.4
2016-May-19 12:28N 46°12' W 123°23'1415.3
2016-May-19 11:33N 46°10' W 123°03'331008.5
2016-May-19 11:31N 46°11' W 123°51'2043.1
2016-May-19 11:04N 46°12' W 123°23'2035.8
2016-May-19 10:31N 46°11' W 123°51'33495.9
2016-May-19 10:27N 46°10' W 123°03'39258.6
2016-May-19 10:18N 45°34' W 122°43'471187.0
2016-May-19 10:16N 46°12' W 123°23'2026.4
2016-May-19 09:31N 46°11' W 123°51'331818.4
2016-May-19 09:30N 46°10' W 123°03'14341.8
2016-May-19 09:28N 46°12' W 123°23'1415.3
2016-May-19 08:33N 46°10' W 123°03'331043.6
2016-May-19 08:31N 46°11' W 123°51'20341.6
2016-May-19 08:28N 46°12' W 123°23'47182.0
2016-May-19 08:12N 45°34' W 122°43'3959.8
2016-May-19 07:33N 46°10' W 123°03'331071.5
2016-May-19 07:31N 46°11' W 123°51'2042.5
2016-May-19 07:04N 46°12' W 123°23'2036.1
2016-May-19 06:31N 46°11' W 123°51'20336.7
2016-May-19 06:28N 46°12' W 123°23'141322.4
2016-May-19 06:27N 46°10' W 123°03'0 0.0
2016-May-19 05:33N 46°10' W 123°03'331043.6
2016-May-19 05:31N 46°11' W 123°51'3334.4
2016-May-19 04:33N 46°10' W 123°03'331052.7
2016-May-19 04:31N 46°11' W 123°51'20234.5
2016-May-19 04:26N 46°12' W 123°23'1415.8
2016-May-19 03:33N 46°10' W 123°03'331052.7
2016-May-19 03:31N 46°11' W 123°51'20105.8
2016-May-19 03:20N 46°12' W 123°23'2024.0
2016-May-19 02:31N 46°11' W 123°51'33487.9
2016-May-19 02:27N 46°10' W 123°03'14851.7
2016-May-19 02:26N 46°12' W 123°23'2021.4
2016-May-19 01:31N 46°11' W 123°51'331764.9
2016-May-19 01:30N 46°10' W 123°03'0 0.0
2016-May-19 00:33N 46°10' W 123°03'14881.6
2016-May-19 00:32N 46°12' W 123°23'201279.3
2016-May-19 00:31N 46°11' W 123°51'0 0.0
2016-May-18 23:32N 46°11' W 123°51'33468.8
2016-May-18 23:27N 46°10' W 123°03'141004.9
2016-May-18 23:26N 46°12' W 123°23'47558.6
2016-May-18 23:21N 45°34' W 122°43'3948.5
2016-May-18 22:33N 46°10' W 123°03'14881.5
2016-May-18 22:32N 46°12' W 123°23'201379.7
2016-May-18 22:31N 46°11' W 123°51'2019.8
2016-May-18 21:32N 46°12' W 123°23'201465.9
2016-May-18 21:32N 46°11' W 123°51'331579.1
2016-May-18 21:30N 46°10' W 123°03'1414.5
2016-May-18 20:32N 46°12' W 123°23'201497.1
2016-May-18 20:32N 46°11' W 123°51'331538.6
2016-May-18 20:30N 46°10' W 123°03'0 0.0
2016-May-18 19:33N 46°10' W 123°03'14897.3
2016-May-18 19:32N 46°12' W 123°23'201407.3
2016-May-18 19:32N 46°11' W 123°51'3334.3
2016-May-18 18:33N 46°10' W 123°03'14930.6
2016-May-18 18:32N 46°12' W 123°23'201279.4
2016-May-18 18:31N 46°11' W 123°51'3334.4
2016-May-18 17:33N 46°10' W 123°03'14913.6
2016-May-18 17:32N 46°12' W 123°23'201379.7
2016-May-18 17:32N 46°11' W 123°51'3334.3
2016-May-18 16:33N 46°10' W 123°03'331165.2
2016-May-18 16:32N 46°11' W 123°51'20189.7
2016-May-18 16:25N 46°12' W 123°23'1415.6
2016-May-18 15:32N 46°10' W 123°03'3313334.8
2016-May-18 15:32N 46°11' W 123°51'2081.0
2016-May-18 15:17N 46°12' W 123°23'1419.1
2016-May-18 14:33N 46°10' W 123°03'331121.6
2016-May-18 14:32N 46°11' W 123°51'20485.3
2016-May-18 14:29N 46°12' W 123°23'1415.0
2016-May-18 13:33N 46°10' W 123°03'331188.3
2016-May-18 13:32N 46°11' W 123°51'20481.9
2016-May-18 13:29N 46°12' W 123°23'1415.0
2016-May-18 12:33N 46°10' W 123°03'331224.6
2016-May-18 12:32N 46°11' W 123°51'20469.1
2016-May-18 12:29N 46°12' W 123°23'1415.0
2016-May-18 11:33N 46°10' W 123°03'331176.6
2016-May-18 11:32N 46°11' W 123°51'20475.4
2016-May-18 11:29N 46°12' W 123°23'2020.4
2016-May-18 10:32N 46°11' W 123°51'33458.1
2016-May-18 10:27N 46°10' W 123°03'14202.6
2016-May-18 10:23N 46°12' W 123°23'2022.7
2016-May-18 09:32N 46°11' W 123°51'331445.9
2016-May-18 09:30N 46°10' W 123°03'14749.9
2016-May-18 09:29N 46°12' W 123°23'1414.6
2016-May-18 08:32N 46°10' W 123°03'3317144.7
2016-May-18 08:32N 46°11' W 123°51'20138.2
2016-May-18 08:23N 46°12' W 123°23'471367.4
2016-May-18 08:21N 45°34' W 122°43'3947.3
2016-May-18 07:32N 46°10' W 123°03'3320002.2
2016-May-18 07:32N 46°11' W 123°51'20212.6
2016-May-18 07:26N 46°12' W 123°23'1415.4
2016-May-18 06:32N 46°10' W 123°03'3313334.8
2016-May-18 06:32N 46°11' W 123°51'20517.4
2016-May-18 06:29N 46°12' W 123°23'47593.5
2016-May-18 06:25N 45°34' W 122°43'4751.4
2016-May-18 05:29N 46°12' W 123°23'202513.0
2016-May-18 05:29N 46°11' W 123°51'33697.7
2016-May-18 05:26N 46°10' W 123°03'393108.8
2016-May-18 05:25N 45°34' W 122°43'3943.7
2016-May-18 04:32N 46°10' W 123°03'3320002.1
2016-May-18 04:32N 46°11' W 123°51'20137.7
2016-May-18 04:23N 46°12' W 123°23'47145.5
2016-May-18 04:03N 45°34' W 122°43'61114.0
2016-May-18 03:32N 46°11' W 123°51'33678.0
2016-May-18 03:29N 46°10' W 123°03'1447.6
2016-May-18 03:11N 46°12' W 123°23'471837.9
2016-May-18 03:10N 45°34' W 122°43'6195.8
2016-May-18 02:32N 46°11' W 123°51'20451.0
2016-May-18 02:29N 46°12' W 123°23'142791.5
2016-May-18 02:29N 46°10' W 123°03'3335.0
2016-May-18 01:32N 46°11' W 123°51'33337.1
2016-May-18 01:26N 46°10' W 123°03'1440.6
2016-May-18 01:05N 46°12' W 123°23'1425.1
2016-May-18 00:32N 46°10' W 123°03'3324002.5
2016-May-18 00:32N 46°11' W 123°51'20459.9
2016-May-18 00:29N 46°12' W 123°23'1414.6
2016-May-17 23:32N 46°10' W 123°03'3324002.7
2016-May-17 23:32N 46°11' W 123°51'2057.0
2016-May-17 23:11N 46°12' W 123°23'1421.3
2016-May-17 22:32N 46°10' W 123°03'3340004.2
2016-May-17 22:32N 46°11' W 123°51'20136.6
2016-May-17 22:23N 46°12' W 123°23'2022.8
2016-May-17 21:32N 46°11' W 123°51'3340004.2
2016-May-17 21:32N 46°10' W 123°03'14322.1
2016-May-17 21:29N 46°12' W 123°23'1414.6
2016-May-17 20:32N 46°10' W 123°03'3360006.3
2016-May-17 20:32N 46°11' W 123°51'20135.8
2016-May-17 20:23N 46°12' W 123°23'1416.3
2016-May-17 19:32N 46°10' W 123°03'33120012.6
2016-May-17 19:32N 46°11' W 123°51'20136.1
2016-May-17 19:23N 46°12' W 123°23'2022.8
2016-May-17 18:32N 46°11' W 123°51'33674.2
2016-May-17 18:29N 46°10' W 123°03'39218.9
2016-May-17 18:18N 45°34' W 122°43'472802.1
2016-May-17 18:17N 46°12' W 123°23'2025.9
2016-May-17 17:32N 46°11' W 123°51'20439.8
2016-May-17 17:29N 46°12' W 123°23'142512.3
2016-May-17 17:29N 46°10' W 123°03'3335.1
2016-May-17 16:32N 46°11' W 123°51'20421.3
2016-May-17 16:29N 46°12' W 123°23'142512.5
2016-May-17 16:29N 46°10' W 123°03'3335.2
2016-May-17 15:32N 46°11' W 123°51'20434.4
2016-May-17 15:29N 46°12' W 123°23'142184.6
2016-May-17 15:29N 46°10' W 123°03'39140.6
2016-May-17 15:12N 45°34' W 122°43'3957.8
2016-May-17 14:32N 46°10' W 123°03'3360006.3
2016-May-17 14:32N 46°11' W 123°51'2080.0
2016-May-17 14:17N 46°12' W 123°23'2025.9
2016-May-17 13:32N 46°11' W 123°51'3340004.5
2016-May-17 13:32N 46°10' W 123°03'1457.2
2016-May-17 13:17N 46°12' W 123°23'2025.9
2016-May-17 12:32N 46°11' W 123°51'33648.7
2016-May-17 12:29N 46°10' W 123°03'1447.4
2016-May-17 12:11N 46°12' W 123°23'2029.9
2016-May-17 11:32N 46°11' W 123°51'3317144.7
2016-May-17 11:32N 46°10' W 123°03'39311.5
2016-May-17 11:24N 45°34' W 122°43'472513.9
2016-May-17 11:23N 46°12' W 123°23'2022.9
2016-May-17 10:32N 46°11' W 123°51'3340004.2
2016-May-17 10:32N 46°10' W 123°03'14318.0
2016-May-17 10:29N 46°12' W 123°23'2020.5
2016-May-17 09:32N 46°11' W 123°51'3310910.2
2016-May-17 09:32N 46°10' W 123°03'14314.0
2016-May-17 09:29N 46°12' W 123°23'0 0.0
2016-May-17 08:32N 46°12' W 123°23'205863.6
2016-May-17 08:32N 46°11' W 123°51'3312001.3
2016-May-17 08:32N 46°10' W 123°03'3333.4
2016-May-17 07:32N 46°11' W 123°51'3330003.1
2016-May-17 07:32N 46°10' W 123°03'14320.0
2016-May-17 07:29N 46°12' W 123°23'47579.4
2016-May-17 07:24N 45°34' W 122°43'6169.4
2016-May-17 06:32N 46°11' W 123°51'33641.8
2016-May-17 06:29N 46°10' W 123°03'3335.2
2016-May-17 05:32N 46°11' W 123°51'33628.3
2016-May-17 05:29N 46°10' W 123°03'0 0.0
2016-May-17 04:33N 46°10' W 123°03'331481.6
2016-May-17 04:32N 46°11' W 123°51'20434.3
2016-May-17 04:29N 46°12' W 123°23'2020.5
2016-May-17 03:32N 46°11' W 123°51'331200.1
2016-May-17 03:30N 46°10' W 123°03'14749.9
2016-May-17 03:29N 46°12' W 123°23'2020.6
2016-May-17 02:32N 46°11' W 123°51'331071.5
2016-May-17 02:30N 46°10' W 123°03'1463.9
2016-May-17 02:17N 46°12' W 123°23'2026.0
2016-May-17 01:32N 46°11' W 123°51'331212.2
2016-May-17 01:30N 46°10' W 123°03'14688.3
2016-May-17 01:29N 46°12' W 123°23'1415.0
2016-May-17 00:33N 46°10' W 123°03'331558.6
2016-May-17 00:32N 46°11' W 123°51'61476.7
2016-May-17 00:24N 45°34' W 122°43'472441.8
2016-May-17 00:23N 46°12' W 123°23'1416.8
2016-May-16 23:33N 46°10' W 123°03'331621.8
2016-May-16 23:32N 46°11' W 123°51'20132.0
2016-May-16 23:23N 46°12' W 123°23'2022.9
2016-May-16 22:32N 46°11' W 123°51'331188.2
2016-May-16 22:30N 46°10' W 123°03'1463.8
2016-May-16 22:17N 46°12' W 123°23'1419.1
2016-May-16 21:33N 46°10' W 123°03'331644.0
2016-May-16 21:32N 46°11' W 123°51'20132.3
2016-May-16 21:23N 46°12' W 123°23'47170.2
2016-May-16 21:06N 45°34' W 122°43'3970.3
2016-May-16 20:33N 46°10' W 123°03'331579.1
2016-May-16 20:32N 46°11' W 123°51'603491.9
2016-May-16 20:31N 45°34' W 122°44'47364.5
2016-May-16 20:23N 46°12' W 123°23'4048.6
2016-May-16 19:33N 45°42' W 122°46'3111209.1
2016-May-16 19:33N 46°10' W 123°03'331644.0
2016-May-16 19:32N 46°11' W 123°51'20200.5
2016-May-16 19:26N 46°12' W 123°23'3438.5
2016-May-16 18:33N 45°50' W 122°47'234976.1
2016-May-16 18:33N 46°10' W 123°03'331579.1
2016-May-16 18:32N 46°11' W 123°51'20132.5
2016-May-16 18:23N 46°12' W 123°23'1416.8
2016-May-16 17:33N 46°10' W 123°03'164771.7
2016-May-16 17:33N 45°58' W 122°49'452668.6
2016-May-16 17:32N 46°11' W 123°51'4040.7
2016-May-16 16:33N 46°05' W 122°55'402212.6
2016-May-16 16:32N 46°11' W 123°51'331121.6
2016-May-16 16:30N 46°10' W 123°03'14118.2
2016-May-16 16:23N 46°12' W 123°23'1416.8
2016-May-16 15:33N 46°10' W 123°03'026.2
2016-May-16 15:32N 46°10' W 123°03'3417302.1
2016-May-16 15:32N 46°11' W 123°51'20132.5
2016-May-16 15:23N 46°12' W 123°23'1416.8
2016-May-16 14:33N 46°10' W 123°03'331644.0
2016-May-16 14:32N 46°11' W 123°51'33300.8
2016-May-16 14:25N 46°10' W 123°03'14361.5
2016-May-16 14:23N 46°12' W 123°23'2023.0
2016-May-16 13:32N 46°11' W 123°51'331081.2
2016-May-16 13:30N 46°10' W 123°03'0 0.4
2016-May-16 13:28N 46°10' W 123°03'1448.5
2016-May-16 13:11N 46°12' W 123°23'1422.1
2016-May-16 12:33N 46°10' W 123°03'331666.8
2016-May-16 12:32N 46°11' W 123°51'20399.8
2016-May-16 12:29N 46°12' W 123°23'144567.6
2016-May-16 12:29N 46°10' W 123°03'3335.2
2016-May-16 11:32N 46°11' W 123°51'33255.3
2016-May-16 11:24N 46°10' W 123°03'14785.2
2016-May-16 11:23N 46°12' W 123°23'14134.3
2016-May-16 11:17N 46°10' W 123°03'0 0.0
2016-May-16 10:33N 46°10' W 123°03'331764.9
2016-May-16 10:32N 46°11' W 123°51'3312001.2
2016-May-16 10:32N 46°10' W 123°03'1495.2
2016-May-16 10:23N 46°12' W 123°23'2023.0
2016-May-16 09:32N 46°11' W 123°51'333243.6
2016-May-16 09:31N 46°10' W 123°03'0 0.3
2016-May-16 09:30N 46°10' W 123°03'1464.3
2016-May-16 09:17N 46°12' W 123°23'1419.0
2016-May-16 08:33N 46°10' W 123°03'331791.2
2016-May-16 08:32N 46°11' W 123°51'33302.3
2016-May-16 08:25N 46°10' W 123°03'14100.3
2016-May-16 08:17N 46°12' W 123°23'2026.0
2016-May-16 07:32N 46°11' W 123°51'331091.0
2016-May-16 07:30N 46°10' W 123°03'0 0.2
2016-May-16 07:28N 46°10' W 123°03'0 0.0
2016-May-16 06:33N 46°10' W 123°03'331764.9
2016-May-16 06:32N 46°11' W 123°51'333333.7
2016-May-16 06:31N 46°10' W 123°03'0 0.0
2016-May-16 05:33N 46°10' W 123°03'331818.4
2016-May-16 05:32N 46°11' W 123°51'20395.3
2016-May-16 05:29N 46°12' W 123°23'141395.6
2016-May-16 05:29N 46°10' W 123°03'0 0.0
2016-May-16 04:33N 46°10' W 123°03'331714.5
2016-May-16 04:32N 46°11' W 123°51'333333.7
2016-May-16 04:31N 46°10' W 123°03'14356.3
2016-May-16 04:29N 46°12' W 123°23'1415.0
2016-May-16 03:33N 46°10' W 123°03'331818.4
2016-May-16 03:32N 46°11' W 123°51'20395.3
2016-May-16 03:29N 46°12' W 123°23'141288.3
2016-May-16 03:28N 46°10' W 123°03'0 0.0
2016-May-16 02:33N 46°10' W 123°03'331846.3
2016-May-16 02:32N 46°11' W 123°51'333243.6
2016-May-16 02:31N 46°10' W 123°03'1499.9
2016-May-16 02:23N 46°12' W 123°23'1416.8
2016-May-16 01:33N 46°10' W 123°03'331791.2
2016-May-16 01:32N 46°11' W 123°51'333333.6
2016-May-16 01:31N 46°10' W 123°03'14356.3
2016-May-16 01:29N 46°12' W 123°23'1415.0
2016-May-16 00:33N 46°10' W 123°03'331690.3
2016-May-16 00:32N 46°11' W 123°51'333529.8
2016-May-16 00:31N 46°10' W 123°03'1458.2
2016-May-16 00:17N 46°12' W 123°23'2026.1
2016-May-15 23:32N 46°11' W 123°51'33571.5
2016-May-15 23:29N 46°10' W 123°03'0 2.4
2016-May-15 23:28N 46°10' W 123°03'1473.2
2016-May-15 23:17N 46°12' W 123°23'0 0.0
2016-May-15 22:33N 46°12' W 123°23'201213.2
2016-May-15 22:32N 46°11' W 123°51'333077.2
2016-May-15 22:31N 46°10' W 123°03'0 0.1
2016-May-15 22:29N 46°10' W 123°03'3335.4
2016-May-15 21:32N 46°11' W 123°51'203909.1
2016-May-15 21:32N 46°12' W 123°23'144567.9
2016-May-15 21:32N 46°10' W 123°03'0 2.4
2016-May-15 21:32N 46°10' W 123°03'3333.7
2016-May-15 20:32N 46°11' W 123°51'204139.0
2016-May-15 20:32N 46°12' W 123°23'145025.0
2016-May-15 20:32N 46°10' W 123°03'0 0.1
2016-May-15 20:25N 46°10' W 123°03'1415.6
2016-May-15 19:32N 46°12' W 123°23'145025.0
2016-May-15 19:32N 46°10' W 123°03'0 3.6
2016-May-15 19:32N 46°10' W 123°03'33839.2
2016-May-15 19:29N 46°11' W 123°51'0 0.0
2016-May-15 18:32N 46°11' W 123°51'333871.4
2016-May-15 18:32N 46°10' W 123°03'14295.6
2016-May-15 18:29N 46°12' W 123°23'143349.5
2016-May-15 18:29N 46°10' W 123°03'3335.5
2016-May-15 17:32N 46°11' W 123°51'203909.1
2016-May-15 17:32N 46°12' W 123°23'144568.2
2016-May-15 17:32N 46°10' W 123°03'0 0.2
2016-May-15 17:29N 46°10' W 123°03'  

Dump ship's entire track history